Time;durP1;ratioP1;P1;durP2;ratioP2;P2;SDS_P1;SDS_P2;PMS_P1;PMS_P2;Temp;Humidity;BMP_temperature;BMP_pressure;BME280_temperature;BME280_humidity;BME280_pressure;Samples;Min_cycle;Max_cycle;Signal;HPM_P1;HPM_P2
2023/09/28 00:02:50;;;;;;;5.38;2.83;;;;;;;18.48;57.22;101092.63;4973526;28;20408;-77
2023/09/28 00:05:45;;;;;;;9.45;2.75;;;;;;;18.83;55.95;101096.19;4972406;28;20076;-77
2023/09/28 00:08:40;;;;;;;8.60;2.38;;;;;;;18.60;56.38;101092.50;4972343;28;20050;-77
2023/09/28 00:11:34;;;;;;;3.75;2.13;;;;;;;18.59;56.65;101097.22;4975684;28;20058;-77
2023/09/28 00:14:29;;;;;;;10.98;3.05;;;;;;;18.47;57.31;101102.84;4960037;28;20526;-76
2023/09/28 00:17:24;;;;;;;12.82;3.08;;;;;;;18.58;56.92;101092.91;4963272;28;20115;-77
2023/09/28 00:20:19;;;;;;;5.97;2.38;;;;;;;18.45;58.00;101087.81;4972413;28;20049;-77
2023/09/28 00:23:11;;;;;;;6.68;1.92;;;;;;;18.39;57.33;101099.13;4978470;28;20515;-77
2023/09/28 00:26:06;;;;;;;11.50;2.88;;;;;;;18.33;58.08;101099.75;4972793;28;20057;-78
2023/09/28 00:29:00;;;;;;;12.30;3.17;;;;;;;18.12;58.54;101096.50;4973801;28;20041;-77
2023/09/28 00:31:55;;;;;;;6.07;3.05;;;;;;;18.13;58.79;101095.34;4964141;28;20053;-77
2023/09/28 00:34:49;;;;;;;4.72;2.90;;;;;;;18.30;57.97;101092.19;4974508;28;20058;-77
2023/09/28 00:37:42;;;;;;;10.77;3.30;;;;;;;18.23;57.99;101084.59;4972268;28;20526;-76
2023/09/28 00:40:36;;;;;;;10.10;3.22;;;;;;;18.06;58.86;101089.66;4975500;28;20053;-77
2023/09/28 00:43:34;;;;;;;6.22;2.88;;;;;;;18.03;58.70;101091.16;4972781;28;20746;-77
2023/09/28 00:46:27;;;;;;;3.55;1.73;;;;;;;18.04;58.52;101083.72;4971328;28;20054;-77
2023/09/28 00:49:23;;;;;;;12.73;2.35;;;;;;;18.14;58.16;101088.66;4974496;28;20058;-78
2023/09/28 00:52:16;;;;;;;6.65;2.50;;;;;;;18.28;57.86;101086.28;4972469;28;20050;-77
2023/09/28 00:55:11;;;;;;;7.53;3.00;;;;;;;18.20;58.01;101077.03;4971205;28;20069;-76
2023/09/28 00:58:05;;;;;;;4.82;1.83;;;;;;;18.33;58.11;101075.78;4972671;28;20666;-77
2023/09/28 01:01:00;;;;;;;4.35;2.20;;;;;;;17.91;59.46;101083.03;4976496;28;20065;-77
2023/09/28 01:03:54;;;;;;;4.78;2.42;;;;;;;18.01;59.07;101074.22;4973906;28;20408;-76
2023/09/28 01:06:49;;;;;;;6.03;2.05;;;;;;;18.20;58.34;101070.72;4972137;28;20408;-77
2023/09/28 01:09:44;;;;;;;12.25;2.38;;;;;;;18.33;58.05;101074.97;4962216;28;20046;-77
2023/09/28 01:12:38;;;;;;;9.93;2.33;;;;;;;18.24;58.22;101071.59;4973407;28;20050;-76
2023/09/28 01:15:30;;;;;;;4.88;2.30;;;;;;;18.21;58.42;101075.88;4972232;28;20115;-77
2023/09/28 01:18:22;;;;;;;5.50;2.60;;;;;;;18.31;58.18;101078.09;4981811;28;20453;-76
2023/09/28 01:21:16;;;;;;;4.55;2.20;;;;;;;18.36;57.85;101068.75;4991146;28;20045;-78
2023/09/28 01:24:11;;;;;;;6.10;2.63;;;;;;;18.12;59.06;101068.97;4994961;28;20045;-78
2023/09/28 01:27:06;;;;;;;8.75;2.67;;;;;;;18.16;58.34;101067.09;4993068;28;20113;-77
2023/09/28 01:29:58;;;;;;;7.50;2.78;;;;;;;18.20;58.64;101062.47;4995946;28;20053;-77
2023/09/28 01:32:52;;;;;;;5.55;2.25;;;;;;;18.25;58.18;101056.69;4994112;28;20049;-77
2023/09/28 01:35:47;;;;;;;8.88;3.25;;;;;;;18.04;59.18;101053.44;4991732;28;20053;-77
2023/09/28 01:38:50;;;;;;;8.20;2.45;;;;;;;17.83;59.84;101053.72;4995478;28;20045;-76
2023/09/28 01:41:45;;;;;;;7.15;2.80;;;;;;;17.81;60.14;101054.09;4992671;28;20049;-76
2023/09/28 01:44:39;;;;;;;5.72;2.72;;;;;;;17.72;60.26;101044.44;4990163;28;20037;-76
2023/09/28 01:47:34;;;;;;;8.32;3.05;;;;;;;17.66;60.62;101049.38;4993983;28;20408;-76
2023/09/28 01:50:28;;;;;;;8.90;2.33;;;;;;;17.54;61.11;101039.22;4977965;28;20057;-76
2023/09/28 01:53:20;;;;;;;12.43;3.42;;;;;;;17.68;60.65;101038.00;4992262;28;20053;-78
2023/09/28 01:56:15;;;;;;;6.75;2.72;;;;;;;17.56;61.35;101038.09;4960129;28;20046;-78
2023/09/28 01:59:09;;;;;;;9.43;3.97;;;;;;;17.35;61.93;101041.06;4978461;28;20057;-78
2023/09/28 02:02:02;;;;;;;5.80;2.65;;;;;;;17.43;61.44;101040.09;4979212;28;20049;-77
2023/09/28 02:04:56;;;;;;;6.18;2.70;;;;;;;17.48;61.09;101039.84;4977036;28;20049;-78
2023/09/28 02:07:51;;;;;;;4.88;2.78;;;;;;;17.50;61.16;101043.03;4980025;28;20054;-77
2023/09/28 02:10:46;;;;;;;5.22;2.83;;;;;;;17.61;60.58;101032.34;4976634;28;20046;-77
2023/09/28 02:13:40;;;;;;;7.25;2.50;;;;;;;17.97;59.53;101042.28;4968931;28;20041;-77
2023/09/28 02:16:35;;;;;;;3.25;2.15;;;;;;;17.47;61.23;101039.03;4980775;28;20412;-77
2023/09/28 02:19:29;;;;;;;10.68;3.20;;;;;;;17.40;61.58;101038.06;4978273;28;20058;-77
2023/09/28 02:22:24;;;;;;;5.97;3.25;;;;;;;17.42;61.48;101038.53;4981957;28;20074;-77
2023/09/28 02:25:18;;;;;;;11.38;3.65;;;;;;;17.72;60.28;101036.16;4977874;28;20046;-77
2023/09/28 02:28:10;;;;;;;5.93;3.00;;;;;;;17.63;60.54;101046.53;4976967;28;20104;-77
2023/09/28 02:31:11;;;;;;;8.75;2.72;;;;;;;17.39;61.40;101039.22;4980460;28;20045;-76
2023/09/28 02:34:06;;;;;;;8.43;2.97;;;;;;;17.42;61.22;101039.31;4977788;28;20050;-77
2023/09/28 02:37:01;;;;;;;6.57;2.85;;;;;;;17.23;62.03;101033.69;4976924;28;20054;-77
2023/09/28 02:39:55;;;;;;;6.68;2.90;;;;;;;17.40;61.36;101032.56;4975268;28;20510;-78
2023/09/28 02:42:50;;;;;;;4.57;2.80;;;;;;;17.33;61.45;101032.38;4975687;28;20619;-77
2023/09/28 02:45:44;;;;;;;5.60;2.63;;;;;;;17.36;61.31;101035.25;4965919;28;20058;-77
2023/09/28 02:48:40;;;;;;;5.00;3.35;;;;;;;17.30;61.37;101030.34;4977331;28;20054;-78
2023/09/28 02:51:34;;;;;;;5.88;3.00;;;;;;;17.41;60.84;101036.94;4979489;28;20057;-77
2023/09/28 02:54:29;;;;;;;6.88;3.10;;;;;;;17.39;61.38;101044.72;4977152;28;20523;-77
2023/09/28 02:57:23;;;;;;;14.15;3.15;;;;;;;17.30;61.59;101035.84;4976370;28;20049;-77
2023/09/28 03:00:28;;;;;;;7.85;2.85;;;;;;;17.33;61.46;101040.63;4990862;28;20041;-77
2023/09/28 03:03:22;;;;;;;7.28;2.80;;;;;;;17.34;61.69;101039.47;4995868;28;20049;-77
2023/09/28 03:06:17;;;;;;;4.32;2.83;;;;;;;17.31;61.40;101042.94;4987058;28;20067;-77
2023/09/28 03:09:12;;;;;;;7.13;3.05;;;;;;;17.33;61.46;101046.91;4984192;28;20045;-77
2023/09/28 03:12:07;;;;;;;6.57;2.47;;;;;;;17.36;61.61;101051.72;4975328;28;20050;-77
2023/09/28 03:15:01;;;;;;;5.65;2.80;;;;;;;17.22;61.87;101048.59;4974962;28;20054;-77
2023/09/28 03:17:58;;;;;;;4.05;2.65;;;;;;;17.05;62.12;101044.22;4962837;28;20412;-77
2023/09/28 03:20:53;;;;;;;4.03;2.63;;;;;;;17.24;62.06;101051.00;4976185;28;20046;-77
2023/09/28 03:23:47;;;;;;;5.28;2.05;;;;;;;17.14;62.18;101043.25;4975515;28;20101;-78
2023/09/28 03:26:42;;;;;;;5.72;2.72;;;;;;;17.23;61.66;101035.63;4975936;28;20049;-76
2023/09/28 03:29:37;;;;;;;6.00;2.58;;;;;;;17.20;61.61;101034.41;4963272;28;20045;-78
2023/09/28 03:32:32;;;;;;;5.33;2.70;;;;;;;17.25;61.47;101033.34;4976054;28;20057;-77
2023/09/28 03:35:27;;;;;;;4.80;2.20;;;;;;;17.27;61.66;101042.06;4974974;28;20049;-77
2023/09/28 03:38:27;;;;;;;7.28;3.17;;;;;;;17.29;61.69;101042.47;4976526;28;20053;-77
2023/09/28 03:41:21;;;;;;;10.65;2.85;;;;;;;17.28;61.38;101036.19;4975908;28;20053;-77
2023/09/28 03:44:16;;;;;;;6.75;2.47;;;;;;;17.28;61.73;101044.44;4963049;28;20708;-78
2023/09/28 03:47:10;;;;;;;6.53;2.67;;;;;;;17.39;61.34;101041.97;4975108;28;20523;-76
2023/09/28 03:50:05;;;;;;;6.60;2.78;;;;;;;17.37;61.09;101041.53;4974615;28;20123;-77
2023/09/28 03:52:59;;;;;;;7.35;2.10;;;;;;;17.35;61.19;101047.38;4975882;28;20046;-77
2023/09/28 03:55:54;;;;;;;5.28;3.08;;;;;;;17.46;60.64;101044.91;4980521;28;20062;-77
2023/09/28 03:58:53;;;;;;;7.93;3.40;;;;;;;17.26;61.37;101051.44;4975345;28;20054;-78
2023/09/28 04:01:48;;;;;;;6.55;2.83;;;;;;;17.25;61.51;101049.84;4975361;28;20046;-77
2023/09/28 04:04:43;;;;;;;10.52;2.53;;;;;;;17.27;61.52;101044.81;4976958;28;20042;-77
2023/09/28 04:07:37;;;;;;;5.72;2.65;;;;;;;17.30;61.52;101038.59;4975254;28;20053;-77
2023/09/28 04:10:32;;;;;;;4.22;2.22;;;;;;;17.23;61.43;101039.19;4975035;28;20050;-77
2023/09/28 04:13:27;;;;;;;8.25;3.25;;;;;;;17.34;61.39;101045.78;4975118;28;20058;-77
2023/09/28 04:16:23;;;;;;;8.43;2.90;;;;;;;17.24;61.67;101040.78;4959760;28;20041;-77
2023/09/28 04:19:16;;;;;;;6.80;2.75;;;;;;;17.38;61.38;101038.41;4976200;28;20069;-76
2023/09/28 04:22:15;;;;;;;7.43;3.90;;;;;;;17.56;60.61;101046.34;4981617;28;20045;-77
2023/09/28 04:25:11;;;;;;;10.93;2.78;;;;;;;17.25;62.24;101041.59;4991312;28;20045;-76
2023/09/28 04:28:06;;;;;;;12.10;2.70;;;;;;;17.36;61.62;101039.94;4975500;28;20045;-78
2023/09/28 04:31:00;;;;;;;8.35;3.28;;;;;;;17.36;61.75;101042.69;4979490;28;20073;-77
2023/09/28 04:33:55;;;;;;;9.55;3.40;;;;;;;17.29;62.00;101037.78;4981092;28;20062;-77
2023/09/28 04:36:49;;;;;;;8.27;2.25;;;;;;;17.21;62.16;101043.47;4974084;28;20053;-77
2023/09/28 04:39:44;;;;;;;6.43;1.85;;;;;;;17.30;62.31;101047.63;4965850;28;20050;-78
2023/09/28 04:42:39;;;;;;;6.90;3.10;;;;;;;17.27;62.24;101039.31;4963770;28;20065;-78
2023/09/28 04:45:36;;;;;;;9.10;2.90;;;;;;;17.31;62.08;101056.69;4986038;28;20057;-78
2023/09/28 04:48:30;;;;;;;10.65;3.00;;;;;;;17.28;62.05;101052.69;4993438;28;20065;-77
2023/09/28 04:51:23;;;;;;;10.88;2.65;;;;;;;17.10;62.83;101040.41;4997880;28;20041;-77
2023/09/28 04:54:17;;;;;;;8.93;2.67;;;;;;;17.14;62.71;101051.50;4984045;28;20521;-77
2023/09/28 04:57:11;;;;;;;8.27;3.30;;;;;;;17.19;62.28;101045.75;4995268;28;20046;-77
2023/09/28 05:00:09;;;;;;;7.03;2.85;;;;;;;17.30;61.98;101055.88;4979163;28;20292;-77
2023/09/28 05:03:04;;;;;;;9.07;2.88;;;;;;;17.45;61.29;101051.56;4988710;28;20038;-77
2023/09/28 05:05:58;;;;;;;8.32;3.33;;;;;;;17.35;61.68;101057.56;4988178;28;20069;-77
2023/09/28 05:08:53;;;;;;;19.38;4.20;;;;;;;17.49;61.81;101057.94;4974099;28;20050;-77
2023/09/28 05:11:47;;;;;;;14.57;4.38;;;;;;;17.69;61.70;101064.38;4990638;28;20066;-77
2023/09/28 05:14:43;;;;;;;8.30;3.92;;;;;;;17.69;61.75;101067.13;4973490;28;20046;-77
2023/09/28 05:17:37;;;;;;;10.85;3.17;;;;;;;17.79;60.71;101070.13;4987890;28;20049;-76
2023/09/28 05:20:32;;;;;;;25.17;3.92;;;;;;;17.93;60.18;101067.72;4994026;28;20054;-78
2023/09/28 05:23:26;;;;;;;21.33;3.50;;;;;;;17.88;60.20;101075.47;4966465;28;20054;-77
2023/09/28 05:26:21;;;;;;;10.48;3.72;;;;;;;18.15;59.66;101079.25;4976522;28;20046;-78
2023/09/28 05:29:15;;;;;;;7.50;1.90;;;;;;;17.98;59.90;101074.16;4973063;28;20058;-76
2023/09/28 05:32:10;;;;;;;17.02;4.35;;;;;;;18.06;59.90;101075.91;4972865;28;20408;-77
2023/09/28 05:35:05;;;;;;;10.48;3.15;;;;;;;18.00;59.89;101080.88;4964460;28;20054;-77
2023/09/28 05:37:57;;;;;;;21.73;3.75;;;;;;;18.02;60.24;101086.03;4977107;28;20439;-77
2023/09/28 05:40:52;;;;;;;13.07;3.00;;;;;;;18.04;60.54;101079.00;4976432;28;20053;-77
2023/09/28 05:43:46;;;;;;;12.73;3.28;;;;;;;18.18;59.71;101089.56;4976199;28;20050;-77
2023/09/28 05:46:38;;;;;;;16.85;3.47;;;;;;;18.32;59.43;101084.41;4977085;28;20530;-77
2023/09/28 05:49:33;;;;;;;8.77;3.10;;;;;;;18.43;58.92;101099.22;4978565;28;20049;-77
2023/09/28 05:52:27;;;;;;;10.48;3.35;;;;;;;18.50;59.28;101091.09;4999234;28;20045;-77
2023/09/28 05:55:22;;;;;;;7.57;3.70;;;;;;;18.72;59.00;101093.19;4987003;28;20526;-78
2023/09/28 05:58:17;;;;;;;22.17;3.28;;;;;;;18.82;58.97;101091.03;4995758;28;20514;-78
2023/09/28 06:01:09;;;;;;;10.65;2.97;;;;;;;18.95;58.67;101089.72;4985961;28;20050;-78
2023/09/28 06:04:04;;;;;;;11.45;3.08;;;;;;;19.13;58.36;101086.19;4982965;28;20503;-76
2023/09/28 06:06:58;;;;;;;6.13;3.13;;;;;;;19.55;57.34;101090.94;4995138;28;20049;-76
2023/09/28 06:09:53;;;;;;;16.75;3.58;;;;;;;19.81;56.45;101090.22;4995143;28;20050;-77
2023/09/28 06:12:48;;;;;;;11.98;4.00;;;;;;;19.80;56.92;101091.38;4994194;28;20045;-76
2023/09/28 06:15:42;;;;;;;8.98;2.30;;;;;;;19.99;56.50;101088.53;4993902;28;20053;-76
2023/09/28 06:18:40;;;;;;;12.23;2.95;;;;;;;20.06;55.73;101089.44;4980808;28;20530;-77
2023/09/28 06:21:34;;;;;;;17.25;3.75;;;;;;;20.19;55.91;101100.28;4993119;28;20534;-77
2023/09/28 06:24:29;;;;;;;22.10;4.13;;;;;;;20.37;55.42;101104.94;4976788;28;20046;-77
2023/09/28 06:27:24;;;;;;;18.58;4.00;;;;;;;20.47;55.27;101096.00;4977714;28;20050;-78
2023/09/28 06:30:19;;;;;;;15.80;3.80;;;;;;;20.52;55.00;101094.88;4981595;28;20062;-77
2023/09/28 06:33:13;;;;;;;19.90;3.88;;;;;;;20.65;55.18;101098.25;4975473;28;20046;-78
2023/09/28 06:36:08;;;;;;;12.45;3.28;;;;;;;20.91;54.63;101099.00;4977448;28;20050;-77
2023/09/28 06:39:07;;;;;;;18.35;3.50;;;;;;;21.13;53.89;101100.03;4974667;28;20050;-77
2023/09/28 06:42:03;;;;;;;180.93;10.95;;;;;;;21.14;54.06;101109.97;4984434;28;20057;-76
2023/09/28 06:44:57;;;;;;;5.55;3.17;;;;;;;21.36;53.73;101108.25;4987811;28;20034;-76
2023/09/28 06:47:52;;;;;;;10.85;3.20;;;;;;;21.44;53.67;101109.09;4996341;28;20053;-77
2023/09/28 06:50:46;;;;;;;10.20;2.88;;;;;;;21.54;53.05;101114.75;4995315;28;20057;-77
2023/09/28 06:53:41;;;;;;;14.48;3.58;;;;;;;21.66;52.94;101122.00;4995011;28;20050;-77
2023/09/28 06:56:36;;;;;;;8.60;2.65;;;;;;;21.63;53.59;101120.00;4995654;28;20058;-77
2023/09/28 06:59:36;;;;;;;12.00;2.95;;;;;;;21.74;53.45;101116.13;4999771;28;20053;-77
2023/09/28 07:02:31;;;;;;;12.60;2.97;;;;;;;21.86;53.02;101122.56;4996953;28;20813;-77
2023/09/28 07:05:26;;;;;;;10.07;3.58;;;;;;;22.04;53.08;101129.13;4995764;28;20049;-78
2023/09/28 07:08:18;;;;;;;5.68;3.05;;;;;;;22.23;52.96;101119.75;4998410;28;20049;-77
2023/09/28 07:11:12;;;;;;;11.38;2.83;;;;;;;22.46;51.78;101129.41;4996334;28;20053;-77
2023/09/28 07:14:07;;;;;;;17.42;2.95;;;;;;;22.63;51.91;101132.69;4985587;28;20134;-77
2023/09/28 07:17:01;;;;;;;9.63;2.80;;;;;;;22.64;51.41;101132.31;4997614;28;20042;-77
2023/09/28 07:19:56;;;;;;;8.80;2.97;;;;;;;22.46;51.71;101134.97;4995565;28;20057;-77
2023/09/28 07:22:50;;;;;;;20.02;3.55;;;;;;;22.52;51.70;101133.41;4995457;28;20050;-77
2023/09/28 07:25:45;;;;;;;17.42;2.90;;;;;;;22.46;52.16;101134.16;4995501;28;20045;-77
2023/09/28 07:28:40;;;;;;;12.13;3.03;;;;;;;22.48;52.62;101137.34;4994690;28;20042;-77
2023/09/28 07:31:34;;;;;;;16.83;3.42;;;;;;;22.50;51.94;101140.56;4983919;28;20057;-77
2023/09/28 07:34:28;;;;;;;5.60;2.28;;;;;;;22.14;52.96;101143.06;4994947;28;20041;-77
2023/09/28 07:37:28;;;;;;;11.38;3.13;;;;;;;22.06;52.83;101144.16;4993324;28;20049;-77
2023/09/28 07:40:24;;;;;;;9.55;2.78;;;;;;;22.08;53.21;101144.59;4988982;28;20065;-77
2023/09/28 07:43:19;;;;;;;8.60;2.50;;;;;;;22.20;53.01;101137.94;4977445;28;20126;-77
2023/09/28 07:46:13;;;;;;;6.82;2.28;;;;;;;22.35;53.51;101144.41;4982543;28;20050;-78
2023/09/28 07:49:07;;;;;;;19.02;3.28;;;;;;;22.28;53.76;101144.34;4965068;28;20050;-77
2023/09/28 07:52:02;;;;;;;9.57;2.63;;;;;;;22.36;53.52;101149.53;4976518;28;20041;-77
2023/09/28 07:54:55;;;;;;;7.00;3.22;;;;;;;22.36;53.42;101157.06;4974282;28;20526;-77
2023/09/28 07:57:50;;;;;;;9.63;3.28;;;;;;;22.32;53.56;101147.91;4973699;28;20050;-77
2023/09/28 08:00:44;;;;;;;10.27;3.00;;;;;;;22.40;53.43;101149.59;4975528;28;20041;-77
2023/09/28 08:03:38;;;;;;;8.05;3.35;;;;;;;22.39;53.43;101148.78;4974627;28;20050;-77
2023/09/28 08:06:33;;;;;;;10.88;2.50;;;;;;;22.38;53.14;101155.50;4964986;28;20058;-77
2023/09/28 08:09:33;;;;;;;10.65;3.90;;;;;;;22.37;53.13;101158.66;4975632;28;20631;-77
2023/09/28 08:12:27;;;;;;;4.20;2.30;;;;;;;22.30;52.79;101147.53;4975529;28;20054;-77
2023/09/28 08:15:22;;;;;;;8.35;3.05;;;;;;;22.21;53.12;101158.13;4974656;28;20530;-78
2023/09/28 08:18:17;;;;;;;13.05;3.60;;;;;;;22.05;53.11;101159.19;4972827;28;20050;-78
2023/09/28 08:21:12;;;;;;;7.35;2.97;;;;;;;22.10;52.30;101164.38;4976727;28;20046;-77
2023/09/28 08:24:06;;;;;;;11.80;2.70;;;;;;;22.01;52.82;101155.59;4973370;28;20546;-77
2023/09/28 08:27:00;;;;;;;8.02;2.80;;;;;;;21.98;51.88;101161.91;4974944;28;20102;-77
2023/09/28 08:29:55;;;;;;;7.63;2.65;;;;;;;22.01;52.97;101163.91;4960967;28;20503;-77
2023/09/28 08:32:49;;;;;;;8.45;3.05;;;;;;;22.05;52.20;101164.72;4977992;28;20066;-77
2023/09/28 08:35:48;;;;;;;15.85;3.20;;;;;;;22.14;52.08;101162.44;4971930;28;20054;-77
2023/09/28 08:38:43;;;;;;;12.85;3.65;;;;;;;22.18;51.70;101160.50;4981338;28;20403;-78
2023/09/28 08:41:55;;;;;;;16.27;2.50;;;;;;;22.34;50.86;101164.97;4994733;28;20057;-77
2023/09/28 08:44:53;;;;;;;8.70;3.00;;;;;;;22.47;50.61;101157.94;4986806;28;20037;-77
2023/09/28 08:47:52;;;;;;;4.13;2.38;;;;;;;22.65;50.64;101153.31;4983503;28;20053;-77
2023/09/28 08:50:47;;;;;;;10.18;3.08;;;;;;;22.92;50.26;101156.66;4973299;28;20431;-77
2023/09/28 08:53:44;;;;;;;7.93;3.33;;;;;;;23.11;50.35;101158.34;4996626;28;20048;-79
2023/09/28 08:56:40;;;;;;;9.27;4.07;;;;;;;23.49;49.13;101154.16;5005579;28;20045;-78
2023/09/28 08:59:35;;;;;;;9.25;3.03;;;;;;;23.84;49.05;101155.03;4984191;28;20093;-77
2023/09/28 09:02:31;;;;;;;23.13;3.03;;;;;;;23.99;47.49;101153.06;4991941;28;20057;-76
2023/09/28 09:05:28;;;;;;;7.45;2.30;;;;;;;24.04;45.59;101151.84;4983179;28;20037;-77
2023/09/28 09:08:22;;;;;;;4.28;2.22;;;;;;;24.21;44.76;101146.34;4995871;28;20045;-78
2023/09/28 09:11:19;;;;;;;8.90;2.92;;;;;;;24.52;45.20;101150.28;4994319;28;20113;-76
2023/09/28 09:14:13;;;;;;;5.63;2.30;;;;;;;24.65;44.17;101148.66;5003567;28;20049;-76
2023/09/28 09:17:08;;;;;;;13.80;2.38;;;;;;;24.61;44.82;101149.88;4995098;28;20065;-79
2023/09/28 09:20:00;;;;;;;;;;;;;;;24.49;44.41;101144.72;4994087;28;20037;-77
2023/09/28 09:22:55;;;;;;;11.75;2.50;;;;;;;24.46;41.82;101146.31;4994578;28;19914;-77
2023/09/28 09:25:50;;;;;;;9.50;2.80;;;;;;;24.58;41.65;101151.44;4996483;28;20538;-77
2023/09/28 09:28:45;;;;;;;13.45;2.67;;;;;;;24.80;42.93;101143.06;4991551;28;20057;-78
2023/09/28 09:31:41;;;;;;;11.35;2.97;;;;;;;24.63;42.90;101153.06;4991671;28;20681;-77
2023/09/28 09:34:35;;;;;;;14.32;2.85;;;;;;;24.60;43.34;101149.06;4990695;28;20049;-76
2023/09/28 09:37:30;;;;;;;6.07;2.70;;;;;;;24.68;42.35;101150.66;4995985;28;20041;-76
2023/09/28 09:40:25;;;;;;;12.85;3.00;;;;;;;24.86;43.56;101144.25;4997233;28;20058;-75
2023/09/28 09:43:19;;;;;;;18.30;2.95;;;;;;;24.99;42.74;101151.00;4991107;28;20041;-76
2023/09/28 09:46:14;;;;;;;7.88;2.95;;;;;;;24.89;41.81;101151.84;4986509;28;20053;-75
2023/09/28 09:49:08;;;;;;;8.02;2.58;;;;;;;24.83;41.78;101147.84;4987234;28;20045;-77
2023/09/28 09:52:05;;;;;;;3.72;2.67;;;;;;;24.74;41.91;101142.69;4985311;28;20414;-75
2023/09/28 09:54:59;;;;;;;6.07;2.60;;;;;;;24.68;43.84;101155.44;4990559;28;20038;-73
2023/09/28 09:57:58;;;;;;;5.63;2.72;;;;;;;24.78;41.44;101149.06;5003538;28;20053;-73
2023/09/28 10:00:54;;;;;;;14.07;2.53;;;;;;;24.90;40.70;101147.84;4991062;28;20054;-73
2023/09/28 10:03:57;;;;;;;11.27;2.63;;;;;;;25.10;39.56;101151.75;4991301;28;20046;-73
2023/09/28 10:06:51;;;;;;;13.63;3.10;;;;;;;25.19;42.15;101156.91;4991028;28;20037;-73
2023/09/28 10:09:43;;;;;;;10.60;3.03;;;;;;;25.16;41.36;101152.91;4990893;28;20061;-73
2023/09/28 10:12:38;;;;;;;6.85;2.45;;;;;;;25.19;41.06;101152.13;4990746;28;20046;-73
2023/09/28 10:15:32;;;;;;;10.85;2.30;;;;;;;25.43;40.75;101151.22;5003761;28;20053;-73
2023/09/28 10:18:27;;;;;;;11.00;2.65;;;;;;;25.58;38.87;101151.16;4990736;28;20060;-74
2023/09/28 10:21:25;;;;;;;8.00;2.70;;;;;;;25.90;39.38;101143.38;4993868;28;20053;-74
2023/09/28 10:24:20;;;;;;;4.13;2.63;;;;;;;26.20;35.34;101137.16;4993775;28;20034;-76
2023/09/28 10:27:15;;;;;;;8.15;3.75;;;;;;;26.13;37.41;101142.78;4995320;28;20422;-77
2023/09/28 10:30:25;;;;;;;16.58;3.17;;;;;;;26.18;37.15;101148.72;4995547;28;20053;-77
2023/09/28 10:33:19;;;;;;;7.35;2.58;;;;;;;26.52;36.54;101148.03;4993068;28;20058;-77
2023/09/28 10:36:17;;;;;;;6.38;2.13;;;;;;;26.63;35.02;101140.34;4990963;28;20046;-77
2023/09/28 10:39:21;;;;;;;10.75;3.17;;;;;;;26.88;34.51;101146.50;4995134;28;20114;-76
2023/09/28 10:42:20;;;;;;;6.45;2.47;;;;;;;27.07;35.36;101150.66;4995423;28;20045;-78
2023/09/28 10:45:13;;;;;;;4.97;2.80;;;;;;;27.05;35.05;101153.88;4980072;28;20041;-77
2023/09/28 10:48:06;;;;;;;4.72;2.58;;;;;;;27.31;35.08;101145.97;4990578;28;20517;-77
2023/09/28 10:51:07;;;;;;;14.90;2.88;;;;;;;27.59;35.00;101142.81;4998786;28;20518;-78
2023/09/28 10:54:04;;;;;;;19.90;2.55;;;;;;;28.37;33.54;101145.19;4995468;28;20415;-77
2023/09/28 10:56:59;;;;;;;11.55;2.80;;;;;;;31.20;28.41;101151.03;5003313;28;20046;-78
2023/09/28 10:59:52;;;;;;;5.07;2.50;;;;;;;37.68;20.46;101157.13;4990382;28;20065;-78
2023/09/28 11:02:48;;;;;;;17.65;3.28;;;;;;;43.72;14.37;101169.44;4994991;28;20049;-78
2023/09/28 11:05:42;;;;;;;6.55;3.00;;;;;;;42.75;15.04;101169.13;4994663;28;20030;-77
2023/09/28 11:08:37;;;;;;;16.45;2.80;;;;;;;44.96;13.82;101175.97;4995374;28;20427;-77
2023/09/28 11:11:30;;;;;;;6.35;2.75;;;;;;;46.83;12.47;101171.41;5010958;28;20042;-77
2023/09/28 11:14:25;;;;;;;10.82;2.58;;;;;;;47.56;11.19;101161.75;4992508;28;20423;-78
2023/09/28 11:17:17;;;;;;;11.82;2.45;;;;;;;47.07;11.61;101165.34;4994613;28;20041;-77
2023/09/28 11:20:14;;;;;;;16.27;3.35;;;;;;;44.39;13.76;101151.50;5011588;28;20045;-76
2023/09/28 11:23:10;;;;;;;6.50;2.15;;;;;;;45.06;12.97;101153.41;4994235;28;20034;-77
2023/09/28 11:26:05;;;;;;;9.63;2.72;;;;;;;43.94;13.10;101141.88;4993215;28;20053;-77
2023/09/28 11:29:00;;;;;;;9.80;2.40;;;;;;;39.28;16.92;101123.41;4995479;28;20054;-77
2023/09/28 11:31:55;;;;;;;3.80;2.63;;;;;;;40.47;16.09;101126.47;4993524;28;20053;-76
2023/09/28 11:34:51;;;;;;;10.70;2.70;;;;;;;44.41;13.41;101131.63;4993361;28;20045;-78
2023/09/28 11:37:46;;;;;;;7.40;2.40;;;;;;;47.39;11.57;101144.16;4992387;28;20126;-77
2023/09/28 11:40:41;;;;;;;7.60;2.42;;;;;;;48.09;11.43;101135.41;4982999;28;20542;-77
2023/09/28 11:43:45;;;;;;;5.78;2.20;;;;;;;49.53;9.95;101139.41;4991254;28;20455;-76
2023/09/28 11:46:41;;;;;;;6.55;2.60;;;;;;;51.55;8.60;101147.47;4994929;28;20053;-78
2023/09/28 11:49:34;;;;;;;12.48;2.15;;;;;;;47.74;10.85;101123.28;4979054;28;20064;-77
2023/09/28 11:52:30;;;;;;;5.55;2.40;;;;;;;48.53;10.53;101136.16;4980655;28;20042;-76
2023/09/28 11:55:24;;;;;;;9.38;3.50;;;;;;;45.24;12.59;101121.00;4993770;28;20057;-77
2023/09/28 11:58:25;;;;;;;4.55;2.10;;;;;;;43.84;13.43;101113.53;4993984;28;20503;-77
2023/09/28 12:01:19;;;;;;;13.43;3.13;;;;;;;45.28;12.19;101112.03;4992968;28;20065;-78
2023/09/28 12:04:15;;;;;;;5.95;2.20;;;;;;;46.77;11.42;101107.44;4982179;28;20407;-77
2023/09/28 12:07:09;;;;;;;6.32;2.58;;;;;;;47.02;10.95;101116.50;4993889;28;20045;-80
2023/09/28 12:10:09;;;;;;;11.38;3.13;;;;;;;45.86;10.98;101107.06;4982514;28;20057;-77
2023/09/28 12:13:01;;;;;;;9.90;2.42;;;;;;;45.88;11.66;101101.50;4983489;28;20045;-78
2023/09/28 12:15:55;;;;;;;6.57;2.83;;;;;;;47.49;10.81;101099.06;5000845;28;20037;-77
2023/09/28 12:18:50;;;;;;;8.10;2.42;;;;;;;45.78;11.07;101096.72;4990999;28;20045;-77
2023/09/28 12:21:45;;;;;;;6.05;2.45;;;;;;;44.01;12.81;101081.81;4999440;28;20049;-77
2023/09/28 12:24:40;;;;;;;8.63;2.53;;;;;;;42.49;14.27;101065.75;4991044;28;20702;-76
2023/09/28 12:27:36;;;;;;;8.02;2.17;;;;;;;39.08;17.33;101060.09;4986751;28;20407;-77
2023/09/28 12:30:30;;;;;;;13.20;2.90;;;;;;;38.47;18.74;101063.91;4986316;28;20041;-77
2023/09/28 12:33:25;;;;;;;9.00;2.45;;;;;;;37.03;19.83;101062.63;4987944;28;20037;-78
2023/09/28 12:36:17;;;;;;;14.93;3.50;;;;;;;36.33;19.65;101059.53;4987775;28;20045;-77
2023/09/28 12:39:10;;;;;;;8.45;2.88;;;;;;;36.33;20.27;101062.38;4992579;28;20054;-77
2023/09/28 12:42:05;;;;;;;6.53;2.70;;;;;;;41.49;15.30;101061.22;4993686;28;20052;-78
2023/09/28 12:44:58;;;;;;;7.53;2.63;;;;;;;45.27;12.32;101067.38;4991598;28;20391;-78
2023/09/28 12:47:54;;;;;;;5.68;2.75;;;;;;;49.84;10.27;101081.50;4995067;28;20534;-78
2023/09/28 12:50:48;;;;;;;6.43;2.30;;;;;;;52.36;8.15;101079.56;4994357;28;20046;-77
2023/09/28 12:53:41;;;;;;;6.90;3.10;;;;;;;53.01;8.21;101078.97;4997020;28;20053;-78
2023/09/28 12:56:35;;;;;;;6.32;2.10;;;;;;;52.17;8.45;101078.69;4992805;28;20046;-77
2023/09/28 12:59:27;;;;;;;6.70;2.53;;;;;;;52.44;7.65;101079.47;4993469;28;20053;-77
2023/09/28 13:02:23;;;;;;;9.45;2.28;;;;;;;48.61;10.18;101068.44;4997323;28;20430;-77
2023/09/28 13:05:16;;;;;;;10.80;3.22;;;;;;;49.21;10.33;101067.72;4993307;28;20045;-77
2023/09/28 13:08:09;;;;;;;9.07;2.23;;;;;;;49.92;8.60;101074.34;4993764;28;20045;-79
2023/09/28 13:11:03;;;;;;;10.68;2.33;;;;;;;48.36;9.78;101059.50;4995797;28;20049;-77
2023/09/28 13:14:01;;;;;;;8.75;2.22;;;;;;;46.65;11.14;101060.06;4992755;28;20049;-78
2023/09/28 13:16:53;;;;;;;;;;;;;;;46.26;11.78;101053.13;4993414;28;20057;-80
2023/09/28 13:19:45;;;;;;;;;;;;;;;45.05;12.03;101054.22;5008086;28;19914;-80
2023/09/28 13:22:37;;;;;;;;;;;;;;;45.68;11.82;101052.50;5011447;28;19914;-80
2023/09/28 13:25:29;;;;;;;;;;;;;;;46.64;11.48;101052.75;4993222;28;19917;-78
2023/09/28 13:28:21;;;;;;;;;;;;;;;46.42;11.22;101047.53;5007827;28;20313;-81
2023/09/28 13:31:10;;;;;;;;;;;;;;;49.30;8.43;101060.56;4998232;28;19918;-79
2023/09/28 13:34:03;;;;;;;;;;;;;;;47.31;10.08;101046.09;5006585;28;19914;-78